createdAt,value
2018-12-11T00:01:34.349Z,96.40
2018-12-11T00:04:02.757Z,96.30
2018-12-11T00:06:31.197Z,96.10
2018-12-11T00:08:59.729Z,96.30
2018-12-11T00:11:28.138Z,95.90
2018-12-11T00:13:56.550Z,95.70
2018-12-11T00:16:24.973Z,95.70
2018-12-11T00:18:53.450Z,96.10
2018-12-11T00:21:21.842Z,96.40
2018-12-11T00:23:50.248Z,96.50
2018-12-11T00:26:18.643Z,96.60
2018-12-11T00:28:47.042Z,96.60
2018-12-11T00:31:15.434Z,96.50
2018-12-11T00:33:43.886Z,96.80
2018-12-11T00:36:12.289Z,96.50
2018-12-11T00:38:40.710Z,96.40
2018-12-11T00:41:09.132Z,96.10
2018-12-11T00:43:37.536Z,95.80
2018-12-11T00:46:05.987Z,95.70
2018-12-11T00:48:34.469Z,95.20
2018-12-11T00:51:02.996Z,95.20
2018-12-11T00:53:31.409Z,95.10
2018-12-11T00:55:59.792Z,94.60
2018-12-11T00:58:28.192Z,94.80
2018-12-11T01:00:56.595Z,94.70
2018-12-11T01:03:25.014Z,94.60
2018-12-11T01:05:53.428Z,94.10
2018-12-11T01:08:21.934Z,94.10
2018-12-11T01:10:50.341Z,94.10
2018-12-11T01:13:18.774Z,94.10
2018-12-11T01:15:47.187Z,94.10
2018-12-11T01:18:15.628Z,94.00
2018-12-11T01:20:44.061Z,94.00
2018-12-11T01:23:12.510Z,94.10
2018-12-11T01:25:40.920Z,93.50
2018-12-11T01:28:09.346Z,93.50
2018-12-11T01:30:37.736Z,93.10
2018-12-11T01:33:06.253Z,93.00
2018-12-11T01:35:34.685Z,92.80
2018-12-11T01:38:03.159Z,93.20
2018-12-11T01:40:31.586Z,93.10
2018-12-11T01:43:00.085Z,92.60
2018-12-11T01:45:28.665Z,92.40
2018-12-11T01:47:57.103Z,92.60
2018-12-11T01:50:25.565Z,92.50
2018-12-11T01:52:54.125Z,92.90
2018-12-11T01:55:22.585Z,92.60
2018-12-11T01:57:51.017Z,92.60
2018-12-11T02:00:19.554Z,92.50
2018-12-11T02:02:47.987Z,92.70
2018-12-11T02:05:16.433Z,92.30
2018-12-11T02:07:44.926Z,92.30
2018-12-11T02:10:13.501Z,92.20
2018-12-11T02:12:41.916Z,92.20
2018-12-11T02:15:11.941Z,91.70
2018-12-11T02:17:40.564Z,91.60
2018-12-11T02:20:09.358Z,91.80
2018-12-11T02:22:37.776Z,91.60
2018-12-11T02:25:06.565Z,91.90
2018-12-11T02:27:35.977Z,91.70
2018-12-11T02:30:05.226Z,91.80
2018-12-11T02:32:33.672Z,91.40
2018-12-11T02:35:02.137Z,91.40
2018-12-11T02:37:30.559Z,90.90
2018-12-11T02:39:59.004Z,91.40
2018-12-11T02:42:27.428Z,91.60
2018-12-11T02:44:55.881Z,91.70
2018-12-11T02:47:24.331Z,91.60
2018-12-11T02:49:52.779Z,92.00
2018-12-11T02:52:21.301Z,91.80
2018-12-11T02:54:49.769Z,91.40
2018-12-11T02:57:18.192Z,91.40
2018-12-11T02:59:46.647Z,91.10
2018-12-11T03:02:15.080Z,91.20
2018-12-11T03:04:43.555Z,91.40
2018-12-11T03:07:12.001Z,91.40
2018-12-11T03:09:40.469Z,91.70
2018-12-11T03:12:08.910Z,91.40
2018-12-11T03:14:37.377Z,91.00
2018-12-11T03:17:05.797Z,91.40
2018-12-11T03:19:34.245Z,91.00
2018-12-11T03:22:02.686Z,91.10
2018-12-11T03:24:31.155Z,90.90
2018-12-11T03:26:59.605Z,91.20
2018-12-11T03:29:28.049Z,91.00
2018-12-11T03:31:56.471Z,90.80
2018-12-11T03:34:24.954Z,91.10
2018-12-11T03:36:53.358Z,91.10
2018-12-11T03:39:21.827Z,90.90
2018-12-11T03:41:50.216Z,91.30
2018-12-11T03:44:18.645Z,90.90
2018-12-11T03:46:47.060Z,90.90
2018-12-11T03:49:15.511Z,91.00
2018-12-11T03:51:43.933Z,91.10
2018-12-11T03:54:12.347Z,90.90
2018-12-11T03:56:40.754Z,90.90
2018-12-11T03:59:09.181Z,90.90
2018-12-11T04:01:37.578Z,90.90
2018-12-11T04:04:06.105Z,90.90
2018-12-11T04:06:34.509Z,91.10
2018-12-11T04:09:04.497Z,90.90
2018-12-11T04:11:32.885Z,90.90
2018-12-11T04:14:01.353Z,90.90
2018-12-11T04:16:29.861Z,90.60
2018-12-11T04:18:58.273Z,90.90
2018-12-11T04:21:26.789Z,90.90
2018-12-11T04:23:55.201Z,90.90
2018-12-11T04:26:23.609Z,91.20
2018-12-11T04:28:52.038Z,90.90
2018-12-11T04:31:20.471Z,90.90
2018-12-11T04:33:48.963Z,90.90
2018-12-11T04:36:17.412Z,90.90
2018-12-11T04:38:45.845Z,90.90
2018-12-11T04:41:14.289Z,90.90
2018-12-11T04:43:42.746Z,90.90
2018-12-11T04:46:11.253Z,90.90
2018-12-11T04:48:39.718Z,90.80
2018-12-11T04:51:08.183Z,91.00
2018-12-11T04:53:36.619Z,90.90
2018-12-11T04:56:05.078Z,90.90
2018-12-11T04:58:33.512Z,91.30
2018-12-11T05:01:01.957Z,91.10
2018-12-11T05:03:30.380Z,91.20
2018-12-11T05:05:58.839Z,91.40
2018-12-11T05:08:27.309Z,90.90
2018-12-11T05:10:55.748Z,91.60
2018-12-11T05:13:24.180Z,91.50
2018-12-11T05:15:52.621Z,91.40
2018-12-11T05:18:21.325Z,91.40
2018-12-11T05:20:50.057Z,91.50
2018-12-11T05:23:18.493Z,91.10
2018-12-11T05:25:46.933Z,91.50
2018-12-11T05:28:15.372Z,91.50
2018-12-11T05:30:43.929Z,91.90
2018-12-11T05:33:12.382Z,91.60
2018-12-11T05:35:40.857Z,91.30
2018-12-11T05:38:09.289Z,91.70
2018-12-11T05:40:37.737Z,91.40
2018-12-11T05:43:06.168Z,91.50
2018-12-11T05:45:34.642Z,91.60
2018-12-11T05:48:03.121Z,91.50
2018-12-11T05:50:31.650Z,91.50
2018-12-11T05:53:00.091Z,91.60
2018-12-11T05:55:28.545Z,91.60
2018-12-11T05:57:56.977Z,91.60
2018-12-11T06:00:25.581Z,91.70
2018-12-11T06:02:54.007Z,91.80
2018-12-11T06:05:22.470Z,91.60
2018-12-11T06:07:50.957Z,91.60
2018-12-11T06:10:19.565Z,91.50
2018-12-11T06:12:48.015Z,91.40
2018-12-11T06:15:16.549Z,91.50
2018-12-11T06:17:45.000Z,91.60
2018-12-11T06:20:13.497Z,91.90
2018-12-11T06:22:41.943Z,92.20
2018-12-11T06:25:10.424Z,92.30
2018-12-11T06:27:38.894Z,92.80
2018-12-11T06:30:08.876Z,92.60
2018-12-11T06:32:37.345Z,92.70
2018-12-11T06:35:06.105Z,92.70
2018-12-11T06:37:34.576Z,92.90
2018-12-11T06:40:03.203Z,92.70
2018-12-11T06:42:31.666Z,92.70
2018-12-11T06:45:00.248Z,92.80
2018-12-11T06:47:28.714Z,92.80
2018-12-11T06:49:57.179Z,92.80
2018-12-11T06:52:25.639Z,92.90
2018-12-11T06:54:54.102Z,93.00
2018-12-11T06:57:22.536Z,93.40
2018-12-11T06:59:50.997Z,93.10
2018-12-11T07:02:19.450Z,93.20
2018-12-11T07:04:47.924Z,93.10
2018-12-11T07:07:16.378Z,93.00
2018-12-11T07:09:44.866Z,92.90
2018-12-11T07:12:13.338Z,92.60
2018-12-11T07:14:41.796Z,92.60
2018-12-11T07:17:10.279Z,92.70
2018-12-11T07:19:38.737Z,92.80
2018-12-11T07:22:07.213Z,92.90
2018-12-11T07:24:35.650Z,92.90
2018-12-11T07:27:04.136Z,92.90
2018-12-11T07:29:32.610Z,92.80
2018-12-11T07:32:01.108Z,92.60
2018-12-11T07:34:29.549Z,92.80
2018-12-11T07:36:58.017Z,92.50
2018-12-11T07:39:26.445Z,92.90
2018-12-11T07:41:54.937Z,92.60
2018-12-11T07:44:23.381Z,92.80
2018-12-11T07:46:51.862Z,92.50
2018-12-11T07:49:20.320Z,92.50
2018-12-11T07:51:48.815Z,92.70
2018-12-11T07:54:17.275Z,92.30
2018-12-11T07:56:45.786Z,92.10
2018-12-11T07:59:14.254Z,91.90
2018-12-11T08:01:42.843Z,92.10
2018-12-11T08:04:11.290Z,92.40
2018-12-11T08:06:39.743Z,91.90
2018-12-11T08:09:08.225Z,92.40
2018-12-11T08:11:36.677Z,91.80
2018-12-11T08:14:05.114Z,91.90
2018-12-11T08:16:33.913Z,92.00
2018-12-11T08:19:02.377Z,91.80
2018-12-11T08:21:30.846Z,91.80
2018-12-11T08:23:59.293Z,91.90
2018-12-11T08:26:27.761Z,91.60
2018-12-11T08:28:56.222Z,92.00
2018-12-11T08:31:24.684Z,91.70
2018-12-11T08:33:53.141Z,91.40
2018-12-11T08:36:21.650Z,91.20
2018-12-11T08:38:50.135Z,91.40
2018-12-11T08:41:19.253Z,91.10
2018-12-11T08:43:47.764Z,91.40
2018-12-11T08:46:16.263Z,91.50
2018-12-11T08:48:44.713Z,91.50
2018-12-11T08:51:13.190Z,91.40
2018-12-11T08:53:41.662Z,91.30
2018-12-11T08:56:10.161Z,91.00
2018-12-11T08:58:38.637Z,91.00
2018-12-11T09:01:07.242Z,90.80
2018-12-11T09:03:35.702Z,90.80
2018-12-11T09:06:04.174Z,90.50
2018-12-11T09:08:32.626Z,90.70
2018-12-11T09:11:01.095Z,90.80
2018-12-11T09:13:29.534Z,91.00
2018-12-11T09:15:57.995Z,91.00
2018-12-11T09:18:26.457Z,91.00
2018-12-11T09:20:54.934Z,90.80
2018-12-11T09:23:23.429Z,90.30
2018-12-11T09:25:51.890Z,90.30
2018-12-11T09:28:20.330Z,90.40
2018-12-11T09:30:48.802Z,90.80
2018-12-11T09:33:17.249Z,90.70
2018-12-11T09:35:45.687Z,91.10
2018-12-11T09:38:14.098Z,91.40
2018-12-11T09:40:42.545Z,91.50
2018-12-11T09:43:10.957Z,91.40
2018-12-11T09:45:39.397Z,91.50
2018-12-11T09:48:07.897Z,91.50
2018-12-11T09:50:36.321Z,91.70
2018-12-11T09:53:04.737Z,91.40
2018-12-11T09:55:33.220Z,91.60
2018-12-11T09:58:01.657Z,91.20
2018-12-11T10:00:30.087Z,91.10
2018-12-11T10:02:58.660Z,90.70
2018-12-11T10:05:27.086Z,90.20
2018-12-11T10:07:55.538Z,89.40
2018-12-11T10:10:23.963Z,89.30
2018-12-11T10:12:52.391Z,88.40
2018-12-11T10:15:20.811Z,88.70
2018-12-11T10:17:49.282Z,87.60
2018-12-11T10:20:18.233Z,87.30
2018-12-11T10:22:46.666Z,87.60
2018-12-11T10:25:15.182Z,86.80
2018-12-11T10:27:43.609Z,88.00
2018-12-11T10:30:12.226Z,87.90
2018-12-11T10:32:40.713Z,89.60
2018-12-11T10:35:09.288Z,89.10
2018-12-11T10:37:38.017Z,88.80
2018-12-11T10:40:06.989Z,88.90
2018-12-11T10:42:35.561Z,89.50
2018-12-11T10:45:04.606Z,90.10
2018-12-11T10:47:33.211Z,89.50
2018-12-11T10:50:01.683Z,89.70
2018-12-11T10:52:30.221Z,89.70
2018-12-11T10:54:58.750Z,90.00
2018-12-11T10:57:27.205Z,89.60
2018-12-11T10:59:55.662Z,89.00
2018-12-11T11:02:26.560Z,89.10
2018-12-11T11:04:55.051Z,89.10
2018-12-11T11:07:23.653Z,89.30
2018-12-11T11:09:52.105Z,89.10
2018-12-11T11:12:20.588Z,89.20
2018-12-11T11:14:49.055Z,90.50
2018-12-11T11:17:17.609Z,89.30
2018-12-11T11:19:46.037Z,89.80
2018-12-11T11:22:14.498Z,89.50
2018-12-11T11:24:43.003Z,90.00
2018-12-11T11:27:11.677Z,88.90
2018-12-11T11:29:40.184Z,88.10
2018-12-11T11:32:08.717Z,88.20
2018-12-11T11:34:40.922Z,88.20
2018-12-11T11:37:09.413Z,88.10
2018-12-11T11:39:37.978Z,86.70
2018-12-11T11:42:06.497Z,87.40
2018-12-11T11:44:35.040Z,88.30
2018-12-11T11:47:04.277Z,87.20
2018-12-11T11:49:32.827Z,86.10
2018-12-11T11:52:01.327Z,85.50
2018-12-11T11:54:29.884Z,85.80
2018-12-11T11:56:58.469Z,85.50
2018-12-11T11:59:26.931Z,85.60
2018-12-11T12:01:55.385Z,85.70
2018-12-11T12:04:23.827Z,85.50
2018-12-11T12:06:52.317Z,84.20
2018-12-11T12:09:20.740Z,84.60
2018-12-11T12:11:49.189Z,85.40
2018-12-11T12:14:17.642Z,85.00
2018-12-11T12:16:46.072Z,83.80
2018-12-11T12:19:14.563Z,84.20
2018-12-11T12:21:43.004Z,84.20
2018-12-11T12:24:11.446Z,84.40
2018-12-11T12:26:39.875Z,84.80
2018-12-11T12:29:08.335Z,83.90
2018-12-11T12:31:36.762Z,84.20
2018-12-11T12:34:05.193Z,84.60
2018-12-11T12:36:33.616Z,85.70
2018-12-11T12:39:02.152Z,85.70
2018-12-11T12:41:30.611Z,85.60
2018-12-11T12:43:59.068Z,86.60
2018-12-11T12:46:27.547Z,86.30
2018-12-11T12:48:56.007Z,89.40
2018-12-11T12:51:24.565Z,91.00
2018-12-11T12:53:53.044Z,91.20
2018-12-11T12:56:21.497Z,92.10
2018-12-11T12:58:49.951Z,91.60
2018-12-11T13:01:18.400Z,92.10
2018-12-11T13:03:47.584Z,91.90
2018-12-11T13:06:16.182Z,92.90
2018-12-11T13:08:44.639Z,92.00
2018-12-11T13:11:13.074Z,91.40
2018-12-11T13:13:41.527Z,91.20
2018-12-11T13:16:10.200Z,91.20
2018-12-11T13:18:38.695Z,90.80
2018-12-11T13:21:07.126Z,90.90
2018-12-11T13:23:35.576Z,90.90
2018-12-11T13:26:04.002Z,90.10
2018-12-11T13:28:32.516Z,90.50
2018-12-11T13:31:00.962Z,89.10
2018-12-11T13:33:29.463Z,89.30
2018-12-11T13:35:57.967Z,89.80
2018-12-11T13:38:26.823Z,89.90
2018-12-11T13:40:55.585Z,89.80
2018-12-11T13:43:24.098Z,90.30
2018-12-11T13:45:52.544Z,89.30
2018-12-11T13:48:23.565Z,88.80
2018-12-11T13:50:51.631Z,88.30
2018-12-11T13:53:20.134Z,88.80
2018-12-11T13:55:48.593Z,89.50
2018-12-11T13:58:17.085Z,89.70
2018-12-11T14:00:45.667Z,89.10
2018-12-11T14:03:14.139Z,89.40
2018-12-11T14:05:42.684Z,88.50
2018-12-11T14:08:11.159Z,87.50
2018-12-11T14:10:39.669Z,88.80
2018-12-11T14:13:08.157Z,89.00
2018-12-11T14:15:36.609Z,88.90
2018-12-11T14:18:05.103Z,88.90
2018-12-11T14:20:33.686Z,89.00
2018-12-11T14:23:02.116Z,88.80
2018-12-11T14:25:30.595Z,89.20
2018-12-11T14:27:59.136Z,88.20
2018-12-11T14:30:27.625Z,87.50
2018-12-11T14:32:56.154Z,86.90
2018-12-11T14:35:24.739Z,88.00
2018-12-11T14:37:53.287Z,87.30
2018-12-11T14:40:21.790Z,86.70
2018-12-11T14:42:50.265Z,86.90
2018-12-11T14:45:18.804Z,86.70
2018-12-11T14:47:47.264Z,87.00
2018-12-11T14:50:15.751Z,86.70
2018-12-11T14:52:44.196Z,86.90
2018-12-11T14:55:12.690Z,87.00
2018-12-11T14:57:41.151Z,86.70
2018-12-11T15:00:10.837Z,86.50
2018-12-11T15:02:39.899Z,86.70
2018-12-11T15:05:08.823Z,86.40
2018-12-11T15:07:37.693Z,86.60
2018-12-11T15:10:08.842Z,86.70
2018-12-11T15:12:37.295Z,87.10
2018-12-11T15:15:07.498Z,87.50
2018-12-11T15:17:35.940Z,87.10
2018-12-11T15:20:05.448Z,87.50
2018-12-11T15:22:33.883Z,88.00
2018-12-11T15:25:02.364Z,87.80
2018-12-11T15:27:30.824Z,88.40
2018-12-11T15:29:59.316Z,87.60
2018-12-11T15:32:27.779Z,89.30
2018-12-11T15:34:56.228Z,90.00
2018-12-11T15:37:24.656Z,89.90
2018-12-11T15:39:53.112Z,90.30
2018-12-11T15:42:21.535Z,90.80
2018-12-11T15:44:49.992Z,90.40
2018-12-11T15:47:18.423Z,90.90
2018-12-11T15:49:46.907Z,90.90
2018-12-11T15:52:15.327Z,91.10
2018-12-11T15:54:44.084Z,90.90
2018-12-11T15:57:12.498Z,90.90
2018-12-11T15:59:40.927Z,91.10
2018-12-11T16:02:09.344Z,91.40
2018-12-11T16:04:37.827Z,91.40
2018-12-11T16:07:06.349Z,91.70
2018-12-11T16:09:37.234Z,91.60
2018-12-11T16:12:06.615Z,91.60
2018-12-11T16:14:35.085Z,91.60
2018-12-11T16:17:03.760Z,91.60
2018-12-11T16:19:32.192Z,91.70
2018-12-11T16:22:00.620Z,91.60
2018-12-11T16:24:29.041Z,91.40
2018-12-11T16:26:57.478Z,91.20
2018-12-11T16:29:25.896Z,91.00
2018-12-11T16:31:54.378Z,91.30
2018-12-11T16:34:22.817Z,91.00
2018-12-11T16:36:51.289Z,91.00
2018-12-11T16:39:19.740Z,91.20
2018-12-11T16:41:48.215Z,91.00
2018-12-11T16:44:16.660Z,91.10
2018-12-11T16:46:45.121Z,91.00
2018-12-11T16:49:13.553Z,91.00
2018-12-11T16:51:42.011Z,91.20
2018-12-11T16:54:10.452Z,91.10
2018-12-11T16:56:38.900Z,91.20
2018-12-11T16:59:07.331Z,91.30
2018-12-11T17:01:35.913Z,91.50
2018-12-11T17:04:04.484Z,91.10
2018-12-11T17:06:32.944Z,91.10
2018-12-11T17:09:01.468Z,91.20
2018-12-11T17:11:29.935Z,91.40
2018-12-11T17:13:58.358Z,91.00
2018-12-11T17:16:26.824Z,90.80
2018-12-11T17:18:55.264Z,91.30
2018-12-11T17:21:23.724Z,91.00
2018-12-11T17:23:52.179Z,91.40
2018-12-11T17:26:20.635Z,91.30
2018-12-11T17:28:50.125Z,91.70
2018-12-11T17:31:18.603Z,92.10
2018-12-11T17:33:47.073Z,91.90
2018-12-11T17:36:15.520Z,92.00
2018-12-11T17:38:43.943Z,91.70
2018-12-11T17:41:12.399Z,91.90
2018-12-11T17:43:40.836Z,92.10
2018-12-11T17:46:09.279Z,92.40
2018-12-11T17:48:41.534Z,92.50
2018-12-11T17:51:08.470Z,92.10
2018-12-11T17:53:37.116Z,92.50
2018-12-11T17:56:05.573Z,92.50
2018-12-11T17:58:34.003Z,92.50
2018-12-11T18:01:02.563Z,92.30
2018-12-11T18:03:30.984Z,92.30
2018-12-11T18:05:59.548Z,92.50
2018-12-11T18:08:27.983Z,92.60
2018-12-11T18:10:56.458Z,92.60
2018-12-11T18:13:24.912Z,92.80
2018-12-11T18:15:53.387Z,92.90
2018-12-11T18:18:21.864Z,92.80
2018-12-11T18:20:50.323Z,92.90
2018-12-11T18:23:18.788Z,93.00
2018-12-11T18:25:47.224Z,92.70
2018-12-11T18:28:16.242Z,93.00
2018-12-11T18:30:45.113Z,93.10
2018-12-11T18:33:14.103Z,93.40
2018-12-11T18:35:42.659Z,93.90
2018-12-11T18:38:11.101Z,94.70
2018-12-11T18:40:39.511Z,95.50
2018-12-11T18:43:07.989Z,96.00
2018-12-11T18:45:36.467Z,96.60
2018-12-11T18:48:04.908Z,97.00
2018-12-11T18:50:33.398Z,97.30
2018-12-11T18:53:01.817Z,97.80
2018-12-11T18:55:30.356Z,98.20
2018-12-11T18:57:58.815Z,98.50
2018-12-11T19:00:27.246Z,98.70
2018-12-11T19:02:55.706Z,98.50
2018-12-11T19:05:24.136Z,98.90
2018-12-11T19:07:52.557Z,99.00
2018-12-11T19:10:20.995Z,99.30
2018-12-11T19:12:49.432Z,99.30
2018-12-11T19:15:17.967Z,99.40
2018-12-11T19:17:46.415Z,99.70
2018-12-11T19:20:14.959Z,99.40
2018-12-11T19:22:43.382Z,99.40
2018-12-11T19:25:16.475Z,99.30
2018-12-11T19:27:44.985Z,99.40
2018-12-11T19:30:13.543Z,99.50
2018-12-11T19:32:42.049Z,99.60
2018-12-11T19:35:10.614Z,99.20
2018-12-11T19:37:39.127Z,99.60
2018-12-11T19:40:09.408Z,99.40
2018-12-11T19:42:38.496Z,99.50
2018-12-11T19:45:07.707Z,99.80
2018-12-11T19:47:36.372Z,99.90
2018-12-11T19:50:05.611Z,99.90
2018-12-11T19:52:39.506Z,99.90
2018-12-11T19:55:04.783Z,99.90
2018-12-11T19:57:33.240Z,99.90
2018-12-11T20:00:01.678Z,99.90
2018-12-11T20:02:30.133Z,99.90
2018-12-11T20:04:58.587Z,99.90
2018-12-11T20:07:27.050Z,99.90
2018-12-11T20:10:00.817Z,99.90
2018-12-11T20:12:29.332Z,99.90
2018-12-11T20:14:57.833Z,99.90
2018-12-11T20:17:26.301Z,99.90
2018-12-11T20:19:54.728Z,99.90
2018-12-11T20:22:23.179Z,99.90
2018-12-11T20:24:51.637Z,99.90
2018-12-11T20:27:20.061Z,99.90
2018-12-11T20:29:48.553Z,99.90
2018-12-11T20:32:16.992Z,99.90
2018-12-11T20:34:45.455Z,99.90
2018-12-11T20:37:14.031Z,99.90
2018-12-11T20:39:42.563Z,99.90
2018-12-11T20:42:11.306Z,99.90
2018-12-11T20:44:40.179Z,99.90
2018-12-11T20:47:09.101Z,99.90
2018-12-11T20:49:37.946Z,99.90
2018-12-11T20:52:06.790Z,99.90
2018-12-11T20:54:35.690Z,99.90
2018-12-11T20:57:04.248Z,99.90
2018-12-11T20:59:32.755Z,99.90
2018-12-11T21:02:01.263Z,99.90
2018-12-11T21:04:29.866Z,99.90
2018-12-11T21:06:58.474Z,99.90
2018-12-11T21:09:26.947Z,99.90
2018-12-11T21:11:55.418Z,99.90
2018-12-11T21:14:24.295Z,99.90
2018-12-11T21:16:53.167Z,99.90
2018-12-11T21:19:21.792Z,99.90
2018-12-11T21:21:50.663Z,99.90
2018-12-11T21:24:19.723Z,99.90
2018-12-11T21:26:48.187Z,99.90
2018-12-11T21:29:17.167Z,99.90
2018-12-11T21:31:45.603Z,99.90
2018-12-11T21:34:14.096Z,99.90
2018-12-11T21:36:42.545Z,99.90
2018-12-11T21:39:11.002Z,99.90
2018-12-11T21:41:39.443Z,99.90
2018-12-11T21:44:07.892Z,99.90
2018-12-11T21:46:36.318Z,99.90
2018-12-11T21:49:04.768Z,99.90
2018-12-11T21:51:33.210Z,99.90
2018-12-11T21:54:01.668Z,99.90
2018-12-11T21:56:30.096Z,99.90
2018-12-11T21:58:58.574Z,99.90
2018-12-11T22:01:27.012Z,99.90
2018-12-11T22:03:55.918Z,99.90
2018-12-11T22:06:24.684Z,99.90
2018-12-11T22:08:53.152Z,99.90
2018-12-11T22:11:21.599Z,99.90
2018-12-11T22:13:50.047Z,99.90
2018-12-11T22:16:18.466Z,99.90
2018-12-11T22:18:46.911Z,99.90
2018-12-11T22:21:15.375Z,99.90
2018-12-11T22:23:43.966Z,99.90
2018-12-11T22:26:12.465Z,99.90
2018-12-11T22:28:40.922Z,99.90
2018-12-11T22:31:09.354Z,99.90
2018-12-11T22:33:37.853Z,99.90
2018-12-11T22:36:06.324Z,99.90
2018-12-11T22:38:34.772Z,99.90
2018-12-11T22:41:03.236Z,99.90
2018-12-11T22:43:31.692Z,99.90
2018-12-11T22:46:00.462Z,99.90
2018-12-11T22:48:29.239Z,99.90
2018-12-11T22:50:57.800Z,99.90
2018-12-11T22:53:26.233Z,99.90
2018-12-11T22:55:54.691Z,99.90
2018-12-11T22:58:23.146Z,99.90
2018-12-11T23:00:51.718Z,99.90
2018-12-11T23:03:20.160Z,99.90
2018-12-11T23:05:48.847Z,99.90
2018-12-11T23:08:17.280Z,99.90
2018-12-11T23:10:45.755Z,99.90
2018-12-11T23:13:14.195Z,99.90
2018-12-11T23:15:42.676Z,99.90
2018-12-11T23:18:11.111Z,99.90
2018-12-11T23:20:39.572Z,99.90
2018-12-11T23:23:08.006Z,99.90
2018-12-11T23:25:36.470Z,99.90
2018-12-11T23:28:04.891Z,99.90
2018-12-11T23:30:33.352Z,99.90
2018-12-11T23:33:01.942Z,99.90
2018-12-11T23:35:30.462Z,99.90
2018-12-11T23:37:59.149Z,99.90
2018-12-11T23:40:27.592Z,99.90
2018-12-11T23:42:55.999Z,99.90
2018-12-11T23:45:24.440Z,99.90
2018-12-11T23:47:52.871Z,99.90
2018-12-11T23:50:21.303Z,99.90
2018-12-11T23:52:49.715Z,99.90
2018-12-11T23:55:18.168Z,99.90
2018-12-11T23:57:46.575Z,99.90
